createdAt,value
2019-04-14T00:02:40.456Z,98410.06
2019-04-14T00:05:47.274Z,98403.83
2019-04-14T00:08:52.298Z,98399.44
2019-04-14T00:11:56.971Z,98402.09
2019-04-14T00:15:02.506Z,98400.77
2019-04-14T00:18:07.550Z,98399.70
2019-04-14T00:21:12.936Z,98401.42
2019-04-14T00:24:18.427Z,98394.63
2019-04-14T00:27:23.659Z,98392.72
2019-04-14T00:30:29.484Z,98389.25
2019-04-14T00:33:34.524Z,98386.08
2019-04-14T00:36:52.530Z,98384.75
2019-04-14T00:40:01.973Z,98381.69
2019-04-14T00:43:26.707Z,98377.02
2019-04-14T00:46:38.950Z,98371.39
2019-04-14T00:49:44.060Z,98374.30
2019-04-14T00:52:48.793Z,98377.44
2019-04-14T00:55:53.399Z,98368.81
2019-04-14T00:58:58.271Z,98374.70
2019-04-14T01:02:03.447Z,98367.55
2019-04-14T01:05:08.956Z,98365.69
2019-04-14T01:08:14.149Z,98355.23
2019-04-14T01:11:18.673Z,98354.48
2019-04-14T01:14:23.439Z,98355.88
2019-04-14T01:17:28.680Z,98363.68
2019-04-14T01:20:34.335Z,98367.42
2019-04-14T01:23:39.202Z,98366.50
2019-04-14T01:26:44.276Z,98373.48
2019-04-14T01:29:49.527Z,98369.22
2019-04-14T01:32:54.416Z,98372.70
2019-04-14T01:35:59.613Z,98368.92
2019-04-14T01:39:06.842Z,98378.22
2019-04-14T01:42:11.746Z,98379.52
2019-04-14T01:45:18.590Z,98383.09
2019-04-14T01:48:23.569Z,98382.68
2019-04-14T01:51:33.126Z,98386.08
2019-04-14T01:54:56.068Z,98383.36
2019-04-14T01:58:12.118Z,98380.06
2019-04-14T02:01:17.081Z,98385.64
2019-04-14T02:04:22.411Z,98381.62
2019-04-14T02:07:27.639Z,98382.34
2019-04-14T02:10:32.634Z,98383.02
2019-04-14T02:13:37.558Z,98381.17
2019-04-14T02:16:49.818Z,98386.88
2019-04-14T02:19:48.246Z,98391.28
2019-04-14T02:22:53.410Z,98398.20
2019-04-14T02:25:58.096Z,98394.22
2019-04-14T02:29:03.613Z,98382.50
2019-04-14T02:32:34.776Z,98370.53
2019-04-14T02:35:47.147Z,98375.36
2019-04-14T02:42:07.087Z,98382.16
2019-04-14T02:44:59.885Z,98374.94
2019-04-14T02:48:14.611Z,98382.77
2019-04-14T02:51:14.443Z,98379.95
2019-04-14T02:54:22.850Z,98381.09
2019-04-14T02:57:26.840Z,98377.45
2019-04-14T03:03:43.470Z,98381.58
2019-04-14T03:06:50.162Z,98379.37
2019-04-14T03:13:09.333Z,98382.09
2019-04-14T03:19:14.378Z,98373.66
2019-04-14T03:22:28.830Z,98376.55
2019-04-14T03:25:26.364Z,98375.89
2019-04-14T03:28:38.445Z,98377.05
2019-04-14T03:32:14.974Z,98374.39
2019-04-14T03:38:18.475Z,98383.06
2019-04-14T03:41:14.345Z,98386.24
2019-04-14T03:44:11.821Z,98388.89
2019-04-14T03:47:19.622Z,98388.30
2019-04-14T03:50:33.763Z,98391.19
2019-04-14T03:53:26.265Z,98378.66
2019-04-14T03:56:16.496Z,98380.81
2019-04-14T03:59:21.902Z,98380.31
2019-04-14T04:02:27.204Z,98380.23
2019-04-14T04:05:32.407Z,98381.16
2019-04-14T04:08:37.714Z,98381.59
2019-04-14T04:11:43.307Z,98379.86
2019-04-14T04:14:48.554Z,98389.53
2019-04-14T04:18:03.434Z,98393.72
2019-04-14T04:21:12.302Z,98395.80
2019-04-14T04:24:36.953Z,98391.06
2019-04-14T04:27:44.039Z,98392.77
2019-04-14T04:31:02.411Z,98392.91
2019-04-14T04:34:09.892Z,98390.55
2019-04-14T04:37:23.512Z,98398.76
2019-04-14T04:40:29.785Z,98399.31
2019-04-14T04:43:36.526Z,98402.11
2019-04-14T04:46:41.595Z,98406.83
2019-04-14T04:49:46.887Z,98412.01
2019-04-14T04:52:51.833Z,98418.27
2019-04-14T04:55:56.787Z,98416.66
2019-04-14T04:59:01.621Z,98422.41
2019-04-14T05:02:07.029Z,98420.74
2019-04-14T05:06:06.846Z,98424.65
2019-04-14T05:09:14.414Z,98423.16
2019-04-14T05:12:32.840Z,98414.69
2019-04-14T05:15:40.119Z,98422.25
2019-04-14T05:18:44.844Z,98426.55
2019-04-14T05:21:49.590Z,98431.44
2019-04-14T05:24:55.000Z,98437.36
2019-04-14T05:28:00.430Z,98433.21
2019-04-14T05:31:05.504Z,98437.87
2019-04-14T05:34:11.177Z,98432.22
2019-04-14T05:37:16.101Z,98433.21
2019-04-14T05:40:21.073Z,98440.11
2019-04-14T05:43:37.011Z,98437.73
2019-04-14T05:46:32.141Z,98447.72
2019-04-14T05:49:44.314Z,98446.19
2019-04-14T05:52:44.638Z,98446.62
2019-04-14T05:55:50.308Z,98452.52
2019-04-14T05:58:55.767Z,98457.16
2019-04-14T06:02:00.262Z,98456.02
2019-04-14T06:05:06.427Z,98456.77
2019-04-14T06:08:11.159Z,98459.22
2019-04-14T06:11:15.599Z,98453.70
2019-04-14T06:14:20.036Z,98463.27
2019-04-14T06:17:24.777Z,98466.00
2019-04-14T06:20:29.208Z,98463.69
2019-04-14T06:23:33.647Z,98470.40
2019-04-14T06:26:38.088Z,98477.04
2019-04-14T06:29:42.781Z,98479.23
2019-04-14T06:32:48.496Z,98472.52
2019-04-14T06:36:12.628Z,98473.64
2019-04-14T06:39:24.453Z,98477.24
2019-04-14T06:42:28.892Z,98473.98
2019-04-14T06:45:33.323Z,98481.31
2019-04-14T06:48:37.762Z,98478.66
2019-04-14T06:51:42.822Z,98481.45
2019-04-14T06:54:47.249Z,98479.77
2019-04-14T06:57:51.692Z,98473.19
2019-04-14T07:00:56.398Z,98473.36
2019-04-14T07:04:00.835Z,98468.37
2019-04-14T07:07:05.275Z,98466.41
2019-04-14T07:10:09.777Z,98455.77
2019-04-14T07:13:14.504Z,98464.56
2019-04-14T07:16:19.240Z,98461.20
2019-04-14T07:19:23.675Z,98461.36
2019-04-14T07:22:28.118Z,98453.63
2019-04-14T07:25:32.548Z,98468.53
2019-04-14T07:28:37.233Z,98460.28
2019-04-14T07:31:58.598Z,98463.70
2019-04-14T07:35:17.502Z,98468.84
2019-04-14T07:38:23.582Z,98465.80
2019-04-14T07:41:38.102Z,98472.80
2019-04-14T07:45:00.695Z,98469.80
2019-04-14T07:48:06.843Z,98469.50
2019-04-14T07:51:29.304Z,98457.42
2019-04-14T07:54:47.668Z,98461.09
2019-04-14T07:58:05.532Z,98461.63
2019-04-14T08:01:17.511Z,98457.44
2019-04-14T08:04:32.674Z,98458.44
2019-04-14T08:07:38.832Z,98462.61
2019-04-14T08:10:43.565Z,98458.06
2019-04-14T08:13:48.012Z,98469.48
2019-04-14T08:16:52.448Z,98459.04
2019-04-14T08:19:57.242Z,98462.98
2019-04-14T08:23:01.700Z,98462.37
2019-04-14T08:26:06.126Z,98473.77
2019-04-14T08:29:10.573Z,98476.94
2019-04-14T08:32:15.005Z,98470.83
2019-04-14T08:35:19.434Z,98473.25
2019-04-14T08:38:24.233Z,98474.73
2019-04-14T08:41:30.267Z,98474.94
2019-04-14T08:44:39.453Z,98476.98
2019-04-14T08:47:46.938Z,98478.47
2019-04-14T08:51:01.988Z,98477.91
2019-04-14T08:54:24.817Z,98477.09
2019-04-14T08:57:49.513Z,98476.20
2019-04-14T09:00:58.271Z,98483.75
2019-04-14T09:04:09.973Z,98480.97
2019-04-14T09:07:21.786Z,98476.53
2019-04-14T09:10:27.886Z,98481.44
2019-04-14T09:13:32.324Z,98484.55
2019-04-14T09:16:36.762Z,98483.84
2019-04-14T09:19:41.471Z,98484.11
2019-04-14T09:22:45.910Z,98483.20
2019-04-14T09:25:50.624Z,98488.55
2019-04-14T09:28:55.075Z,98492.60
2019-04-14T09:31:59.987Z,98491.64
2019-04-14T09:35:05.770Z,98488.38
2019-04-14T09:38:10.205Z,98489.83
2019-04-14T09:41:14.638Z,98485.27
2019-04-14T09:44:19.124Z,98489.02
2019-04-14T09:47:23.528Z,98486.30
2019-04-14T09:50:27.966Z,98482.92
2019-04-14T09:53:32.399Z,98482.83
2019-04-14T09:56:36.842Z,98486.91
2019-04-14T09:59:41.641Z,98485.40
2019-04-14T10:02:46.096Z,98484.58
2019-04-14T10:05:50.569Z,98488.34
2019-04-14T10:08:55.016Z,98489.02
2019-04-14T10:11:59.534Z,98486.33
2019-04-14T10:15:04.627Z,98499.06
2019-04-14T10:18:09.059Z,98491.31
2019-04-14T10:21:17.498Z,98488.89
2019-04-14T10:24:19.676Z,98481.20
2019-04-14T10:27:24.422Z,98483.34
2019-04-14T10:30:28.875Z,98482.29
2019-04-14T10:33:33.677Z,98481.47
2019-04-14T10:36:38.414Z,98486.57
2019-04-14T10:39:42.865Z,98484.44
2019-04-14T10:42:47.331Z,98476.92
2019-04-14T10:45:51.799Z,98482.21
2019-04-14T10:48:56.243Z,98483.31
2019-04-14T10:52:00.699Z,98488.93
2019-04-14T10:55:07.369Z,98480.69
2019-04-14T10:58:11.808Z,98486.84
2019-04-14T11:01:16.258Z,98477.73
2019-04-14T11:04:20.987Z,98478.22
2019-04-14T11:07:27.091Z,98475.41
2019-04-14T11:10:31.781Z,98468.00
2019-04-14T11:13:36.218Z,98471.63
2019-04-14T11:16:40.931Z,98472.73
2019-04-14T11:19:45.371Z,98471.13
2019-04-14T11:23:02.496Z,98471.20
2019-04-14T11:25:56.248Z,98464.22
2019-04-14T11:29:00.687Z,98468.02
2019-04-14T11:32:04.902Z,98464.88
2019-04-14T11:35:19.662Z,98464.94
2019-04-14T11:38:25.742Z,98466.84
2019-04-14T11:41:30.193Z,98472.20
2019-04-14T11:44:34.637Z,98483.48
2019-04-14T11:47:39.080Z,98481.85
2019-04-14T11:50:43.529Z,98478.91
2019-04-14T11:53:47.973Z,98467.59
2019-04-14T11:56:53.082Z,98477.29
2019-04-14T12:00:12.330Z,98472.97
2019-04-14T12:03:21.079Z,98485.07
2019-04-14T12:06:33.994Z,98478.13
2019-04-14T12:09:43.116Z,98480.88
2019-04-14T12:12:47.862Z,98478.39
2019-04-14T12:15:52.312Z,98482.66
2019-04-14T12:18:57.018Z,98487.97
2019-04-14T12:22:08.075Z,98487.76
2019-04-14T12:25:07.765Z,98496.95
2019-04-14T12:28:13.368Z,98492.38
2019-04-14T12:31:18.092Z,98493.75
2019-04-14T12:34:22.528Z,98496.11
2019-04-14T12:37:27.046Z,98484.70
2019-04-14T12:40:31.485Z,98485.28
2019-04-14T12:43:37.839Z,98481.96
2019-04-14T12:46:46.612Z,98476.33
2019-04-14T12:49:55.591Z,98476.92
2019-04-14T12:53:00.113Z,98473.88
2019-04-14T12:56:04.556Z,98479.50
2019-04-14T12:59:08.772Z,98476.95
2019-04-14T13:02:21.092Z,98484.05
2019-04-14T13:05:25.535Z,98480.97
2019-04-14T13:08:29.986Z,98476.92
2019-04-14T13:11:34.439Z,98483.42
2019-04-14T13:14:39.172Z,98483.23
2019-04-14T13:17:43.617Z,98480.02
2019-04-14T13:20:48.324Z,98482.98
2019-04-14T13:23:53.055Z,98480.02
2019-04-14T13:26:57.504Z,98477.37
2019-04-14T13:30:02.017Z,98482.37
2019-04-14T13:33:06.540Z,98477.97
2019-04-14T13:36:11.003Z,98491.87
2019-04-14T13:39:15.434Z,98495.95
2019-04-14T13:42:19.956Z,98486.30
2019-04-14T13:45:24.395Z,98477.94
2019-04-14T13:48:28.846Z,98484.28
2019-04-14T13:51:33.286Z,98485.47
2019-04-14T13:54:37.733Z,98483.66
2019-04-14T13:57:42.433Z,98483.00
2019-04-14T14:00:47.039Z,98484.28
2019-04-14T14:03:51.489Z,98485.67
2019-04-14T14:06:56.213Z,98485.77
2019-04-14T14:10:00.663Z,98490.62
2019-04-14T14:13:22.878Z,98476.51
2019-04-14T14:16:34.492Z,98486.23
2019-04-14T14:19:40.841Z,98486.74
2019-04-14T14:23:02.952Z,98489.97
2019-04-14T14:26:15.005Z,98492.51
2019-04-14T14:29:19.454Z,98486.37
2019-04-14T14:32:28.694Z,98494.81
2019-04-14T14:35:33.138Z,98485.13
2019-04-14T14:38:37.903Z,98494.05
2019-04-14T14:41:42.343Z,98490.45
2019-04-14T14:44:57.079Z,98489.69
2019-04-14T14:48:16.077Z,98494.36
2019-04-14T14:51:27.977Z,98496.62
2019-04-14T14:54:32.424Z,98492.80
2019-04-14T14:57:36.882Z,98494.36
2019-04-14T15:00:41.593Z,98490.91
2019-04-14T15:03:46.048Z,98492.87
2019-04-14T15:06:50.503Z,98485.63
2019-04-14T15:09:55.160Z,98498.20
2019-04-14T15:12:59.619Z,98498.16
2019-04-14T15:16:04.135Z,98504.94
2019-04-14T15:19:08.591Z,98499.69
2019-04-14T15:22:13.315Z,98506.98
2019-04-14T15:25:18.042Z,98508.36
2019-04-14T15:28:22.501Z,98506.58
2019-04-14T15:31:26.942Z,98513.16
2019-04-14T15:34:31.389Z,98514.98
2019-04-14T15:37:35.832Z,98506.86
2019-04-14T15:40:40.280Z,98512.23
2019-04-14T15:43:44.733Z,98511.14
2019-04-14T15:46:49.175Z,98516.41
2019-04-14T15:49:53.940Z,98528.39
2019-04-14T15:52:58.383Z,98518.73
2019-04-14T15:56:03.201Z,98528.22
2019-04-14T15:59:12.050Z,98536.74
2019-04-14T16:02:18.142Z,98535.91
2019-04-14T16:05:30.166Z,98539.08
2019-04-14T16:08:45.254Z,98544.17
2019-04-14T16:12:07.173Z,98548.54
2019-04-14T16:15:29.759Z,98544.46
2019-04-14T16:18:51.174Z,98544.74
2019-04-14T16:21:55.684Z,98541.77
2019-04-14T16:25:00.200Z,98548.58
2019-04-14T16:28:08.934Z,98552.08
2019-04-14T16:31:30.751Z,98561.47
2019-04-14T16:34:39.528Z,98562.55
2019-04-14T16:37:43.965Z,98558.25
2019-04-14T16:40:48.420Z,98565.50
2019-04-14T16:43:52.860Z,98571.67
2019-04-14T16:46:57.305Z,98567.38
2019-04-14T16:50:01.753Z,98575.18
2019-04-14T16:53:13.488Z,98582.97
2019-04-14T16:56:19.573Z,98578.92
2019-04-14T16:59:24.329Z,98591.01
2019-04-14T17:02:28.792Z,98584.02
2019-04-14T17:05:34.862Z,98596.09
2019-04-14T17:08:39.739Z,98604.41
2019-04-14T17:11:44.186Z,98600.61
2019-04-14T17:14:50.262Z,98601.91
2019-04-14T17:18:12.534Z,98610.20
2019-04-14T17:21:31.999Z,98607.42
2019-04-14T17:24:38.143Z,98609.58
2019-04-14T17:27:48.299Z,98616.50
2019-04-14T17:31:10.738Z,98628.22
2019-04-14T17:34:16.832Z,98629.55
2019-04-14T17:37:38.722Z,98640.45
2019-04-14T17:40:44.823Z,98649.53
2019-04-14T17:44:06.720Z,98654.64
2019-04-14T17:47:10.941Z,98657.09
2019-04-14T17:50:21.285Z,98662.61
2019-04-14T17:53:30.192Z,98662.98
2019-04-14T17:56:38.963Z,98673.67
2019-04-14T17:59:47.760Z,98673.92
2019-04-14T18:02:52.289Z,98671.45
2019-04-14T18:06:01.081Z,98684.10
2019-04-14T18:09:09.093Z,98690.72
2019-04-14T18:12:27.165Z,98690.71
2019-04-14T18:15:36.202Z,98697.48
2019-04-14T18:18:50.716Z,98696.01
2019-04-14T18:21:55.154Z,98697.86
2019-04-14T18:24:59.660Z,98704.45
2019-04-14T18:28:08.399Z,98711.78
2019-04-14T18:31:26.486Z,98715.31
2019-04-14T18:34:35.300Z,98728.23
2019-04-14T18:37:57.760Z,98733.29
2019-04-14T18:41:03.836Z,98737.95
2019-04-14T18:44:26.761Z,98743.86
2019-04-14T18:47:49.081Z,98749.95
2019-04-14T18:51:04.193Z,98745.55
2019-04-14T18:54:10.548Z,98756.00
2019-04-14T18:57:22.565Z,98762.50
2019-04-14T19:00:37.562Z,98766.94
2019-04-14T19:03:42.006Z,98764.73
2019-04-14T19:06:46.779Z,98780.17
2019-04-14T19:09:51.219Z,98778.62
2019-04-14T19:13:00.000Z,98780.27
2019-04-14T19:16:06.958Z,98788.95
2019-04-14T19:19:12.359Z,98787.27
2019-04-14T19:22:17.091Z,98780.20
2019-04-14T19:25:21.526Z,98797.01
2019-04-14T19:28:25.965Z,98785.77
2019-04-14T19:31:30.467Z,98796.25
2019-04-14T19:34:35.195Z,98803.02
2019-04-14T19:37:39.634Z,98800.70
2019-04-14T19:40:44.069Z,98805.41
2019-04-14T19:43:48.508Z,98810.97
2019-04-14T19:46:53.194Z,98807.66
2019-04-14T19:49:57.637Z,98806.91
2019-04-14T19:53:02.082Z,98810.50
2019-04-14T19:56:06.513Z,98819.07
2019-04-14T19:59:10.954Z,98826.31
2019-04-14T20:02:15.389Z,98822.66
2019-04-14T20:05:19.825Z,98827.23
2019-04-14T20:08:24.293Z,98831.12
2019-04-14T20:11:28.796Z,98827.17
2019-04-14T20:14:33.242Z,98829.80
2019-04-14T20:17:42.145Z,98830.31
2019-04-14T20:21:04.381Z,98831.12
2019-04-14T20:24:08.906Z,98834.71
2019-04-14T20:27:14.982Z,98833.13
2019-04-14T20:30:29.761Z,98842.97
2019-04-14T20:33:34.199Z,98842.12
2019-04-14T20:36:38.628Z,98839.44
2019-04-14T20:39:43.067Z,98845.61
2019-04-14T20:42:47.888Z,98855.72
2019-04-14T20:45:52.364Z,98861.52
2019-04-14T20:48:56.811Z,98858.08
2019-04-14T20:52:01.242Z,98868.27
2019-04-14T20:55:08.040Z,98869.11
2019-04-14T20:58:12.465Z,98863.28
2019-04-14T21:01:17.778Z,98864.41
2019-04-14T21:04:26.506Z,98868.70
2019-04-14T21:07:38.261Z,98870.63
2019-04-14T21:10:59.091Z,98869.30
2019-04-14T21:14:05.172Z,98875.20
2019-04-14T21:17:16.677Z,98874.63
2019-04-14T21:20:22.757Z,98883.43
2019-04-14T21:23:29.618Z,98881.48
2019-04-14T21:26:51.315Z,98883.64
2019-04-14T21:29:57.391Z,98882.45
2019-04-14T21:33:09.272Z,98881.52
2019-04-14T21:36:13.799Z,98889.41
2019-04-14T21:39:29.928Z,98893.67
2019-04-14T21:42:34.354Z,98899.55
2019-04-14T21:45:38.800Z,98900.13
2019-04-14T21:48:43.225Z,98901.46
2019-04-14T21:52:05.098Z,98905.63
2019-04-14T21:55:10.075Z,98912.50
2019-04-14T21:58:16.152Z,98910.92
2019-04-14T22:01:42.900Z,98913.01
2019-04-14T22:04:57.923Z,98919.37
2019-04-14T22:08:16.247Z,98914.59
2019-04-14T22:11:22.567Z,98916.05
2019-04-14T22:14:27.264Z,98920.85
2019-04-14T22:17:31.698Z,98927.48
2019-04-14T22:20:36.135Z,98924.80
2019-04-14T22:23:40.565Z,98937.03
2019-04-14T22:26:45.263Z,98929.73
2019-04-14T22:29:49.688Z,98929.20
2019-04-14T22:32:54.123Z,98928.53
2019-04-14T22:35:58.562Z,98918.80
2019-04-14T22:39:04.630Z,98923.75
2019-04-14T22:42:09.530Z,98929.50
2019-04-14T22:45:14.030Z,98922.61
2019-04-14T22:48:18.465Z,98926.25
2019-04-14T22:51:22.899Z,98919.45
2019-04-14T22:54:27.637Z,98923.27
2019-04-14T22:57:32.098Z,98918.30
2019-04-14T23:00:38.227Z,98917.28
2019-04-14T23:03:56.548Z,98921.28
2019-04-14T23:07:03.475Z,98923.55
2019-04-14T23:10:21.978Z,98924.89
2019-04-14T23:13:37.049Z,98925.72
2019-04-14T23:16:59.239Z,98930.36
2019-04-14T23:20:25.154Z,98930.69
2019-04-14T23:23:43.292Z,98931.02
2019-04-14T23:26:52.774Z,98928.98
2019-04-14T23:29:54.388Z,98925.01
2019-04-14T23:32:58.904Z,98922.09
2019-04-14T23:36:03.411Z,98919.04
2019-04-14T23:39:09.790Z,98919.82
2019-04-14T23:42:14.648Z,98919.81
2019-04-14T23:45:19.147Z,98908.50
2019-04-14T23:48:23.603Z,98910.33
2019-04-14T23:51:28.040Z,98910.37
2019-04-14T23:54:32.765Z,98911.97
2019-04-14T23:57:37.202Z,98909.27
